Time;durP1;ratioP1;P1;durP2;ratioP2;P2;SDS_P1;SDS_P2;PMS_P1;PMS_P2;Temp;Humidity;BMP_temperature;BMP_pressure;BME280_temperature;BME280_humidity;BME280_pressure;Samples;Min_cycle;Max_cycle;Signal;HPM_P1;HPM_P2
2023/01/27 00:00:14;;;;;;;2.75;1.17;;;17.30;51.30;;;;;;5116290;28;20207;-56
2023/01/27 00:02:40;;;;;;;1.83;1.10;;;17.30;51.30;;;;;;5115286;28;20512;-55
2023/01/27 00:05:06;;;;;;;1.48;1.00;;;17.30;51.30;;;;;;5116223;28;20672;-57
2023/01/27 00:07:32;;;;;;;1.70;1.10;;;17.30;51.30;;;;;;5115919;28;20220;-55
2023/01/27 00:09:58;;;;;;;2.70;1.45;;;17.30;51.30;;;;;;5115149;28;20173;-54
2023/01/27 00:15:09;;;;;;;2.42;1.40;;;17.20;51.30;;;;;;5116205;28;20306;-55
2023/01/27 00:17:34;;;;;;;1.98;0.95;;;17.20;51.30;;;;;;5114607;28;20256;-56
2023/01/27 00:20:01;;;;;;;3.13;1.50;;;17.20;51.40;;;;;;5115695;28;20700;-53
2023/01/27 00:25:10;;;;;;;1.60;1.15;;;17.20;51.40;;;;;;5115008;28;20192;-55
2023/01/27 00:27:36;;;;;;;2.67;1.00;;;17.10;52.00;;;;;;5115281;28;20686;-55
2023/01/27 00:30:03;;;;;;;2.60;1.08;;;17.20;51.40;;;;;;5115456;28;20173;-50
2023/01/27 00:35:15;;;;;;;2.03;1.30;;;17.10;51.30;;;;;;5115499;28;20238;-53
2023/01/27 00:37:41;;;;;;;2.88;1.30;;;17.10;51.40;;;;;;5114478;28;20228;-54
2023/01/27 00:40:08;;;;;;;2.08;0.88;;;17.10;51.40;;;;;;5115417;28;20173;-55
2023/01/27 00:42:34;;;;;;;1.92;1.05;;;17.10;51.40;;;;;;5115031;28;20200;-56
2023/01/27 00:47:43;;;;;;;3.22;1.00;;;17.10;51.40;;;;;;5115284;28;20203;-55
2023/01/27 00:50:09;;;;;;;2.75;1.33;;;17.00;51.30;;;;;;5115479;28;20173;-55
2023/01/27 00:52:34;;;;;;;1.77;1.30;;;17.00;51.30;;;;;;5114386;28;20619;-56
2023/01/27 00:55:00;;;;;;;2.72;1.58;;;17.00;51.30;;;;;;5115051;28;20711;-52
2023/01/27 00:57:26;;;;;;;1.35;1.10;;;17.00;51.40;;;;;;5114913;28;20260;-54
2023/01/27 00:59:51;;;;;;;1.40;0.95;;;17.00;51.40;;;;;;5114454;28;20655;-55
2023/01/27 01:02:17;;;;;;;2.60;1.00;;;17.00;51.40;;;;;;5114785;28;20188;-56
2023/01/27 01:04:42;;;;;;;2.00;1.30;;;17.00;51.40;;;;;;5115008;28;20579;-57
2023/01/27 01:07:08;;;;;;;1.15;0.93;;;17.00;51.40;;;;;;5113952;28;20373;-54
2023/01/27 01:09:33;;;;;;;1.90;0.90;;;17.00;52.00;;;;;;5114234;28;20635;-54
2023/01/27 01:11:59;;;;;;;2.42;1.20;;;16.90;51.30;;;;;;5114965;28;20666;-54
2023/01/27 01:14:24;;;;;;;2.25;1.40;;;16.90;51.40;;;;;;5113990;28;20180;-53
2023/01/27 01:16:50;;;;;;;2.45;1.23;;;16.90;51.40;;;;;;5114697;28;20221;-56
2023/01/27 01:19:15;;;;;;;1.42;1.10;;;16.90;51.40;;;;;;5114720;28;20632;-54
2023/01/27 01:21:41;;;;;;;1.98;0.93;;;16.90;51.40;;;;;;5113669;28;20169;-55
2023/01/27 01:24:06;;;;;;;1.00;0.90;;;16.90;51.40;;;;;;5114621;28;20542;-54
2023/01/27 01:26:32;;;;;;;1.65;1.20;;;16.90;51.40;;;;;;5114149;28;20211;-55
2023/01/27 01:28:57;;;;;;;2.80;1.30;;;16.90;51.40;;;;;;5113610;28;20743;-53
2023/01/27 01:31:23;;;;;;;1.92;1.35;;;16.90;51.40;;;;;;5114334;28;20165;-55
2023/01/27 01:33:48;;;;;;;2.53;1.52;;;16.80;51.40;;;;;;5113747;28;20181;-55
2023/01/27 01:36:17;;;;;;;1.00;0.90;;;16.80;51.40;;;;;;5114511;28;20161;-56
2023/01/27 01:38:42;;;;;;;2.42;1.13;;;16.90;51.40;;;;;;5114181;28;20188;-55
2023/01/27 01:41:12;;;;;;;1.92;1.25;;;16.80;51.30;;;;;;5113461;28;20170;-56
2023/01/27 01:43:37;;;;;;;2.42;1.10;;;16.80;51.40;;;;;;5114077;28;20181;-56
2023/01/27 01:46:03;;;;;;;1.88;1.10;;;16.80;51.40;;;;;;5114504;28;20176;-55
2023/01/27 01:48:41;;;;;;;3.17;1.10;;;16.80;51.40;;;;;;5113113;28;20300;-54
2023/01/27 01:51:39;;;;;;;1.92;1.35;;;16.80;51.40;;;;;;5114031;28;20238;-56
2023/01/27 01:54:08;;;;;;;2.13;0.93;;;16.80;51.40;;;;;;5108846;28;20639;-56
2023/01/27 01:56:38;;;;;;;0.85;0.70;;;16.80;51.40;;;;;;5094636;28;20169;-56
2023/01/27 01:59:13;;;;;;;2.17;1.20;;;16.70;51.30;;;;;;5095412;28;20190;-55
2023/01/27 02:01:39;;;;;;;2.92;1.40;;;16.70;51.40;;;;;;5113784;28;20203;-56
2023/01/27 02:04:07;;;;;;;1.20;1.10;;;16.70;51.40;;;;;;5113326;28;20632;-56
2023/01/27 02:06:36;;;;;;;1.90;1.15;;;16.70;51.40;;;;;;5095286;28;20620;-56
2023/01/27 02:09:01;;;;;;;2.63;1.25;;;16.70;51.40;;;;;;5095221;28;20217;-56
2023/01/27 02:11:27;;;;;;;1.48;1.23;;;16.70;51.40;;;;;;5113584;28;20176;-56
2023/01/27 02:13:53;;;;;;;1.17;1.00;;;16.70;51.40;;;;;;5113724;28;20222;-59
2023/01/27 02:16:18;;;;;;;2.58;1.40;;;16.70;51.40;;;;;;5112420;28;20165;-56
2023/01/27 02:18:44;;;;;;;3.13;1.50;;;16.70;51.40;;;;;;5113851;28;20169;-56
2023/01/27 02:21:09;;;;;;;3.03;1.15;;;16.70;51.40;;;;;;5113840;28;20165;-56
2023/01/27 02:23:55;;;;;;;1.15;0.93;;;16.70;51.40;;;;;;5112685;28;20177;-55
2023/01/27 02:26:27;;;;;;;1.65;1.05;;;16.70;51.40;;;;;;5095148;28;20225;-55
2023/01/27 02:28:54;;;;;;;2.72;1.63;;;16.70;51.40;;;;;;5096186;28;20208;-50
2023/01/27 02:31:20;;;;;;;2.28;1.30;;;16.70;51.40;;;;;;5112571;28;20173;-56
2023/01/27 02:33:45;;;;;;;1.52;1.17;;;16.60;51.30;;;;;;5113322;28;20184;-56
2023/01/27 02:36:12;;;;;;;2.67;1.30;;;16.60;51.40;;;;;;5113447;28;20182;-56
2023/01/27 02:38:41;;;;;;;1.35;1.10;;;16.60;51.40;;;;;;5094388;28;20180;-56
2023/01/27 02:41:11;;;;;;;2.30;1.20;;;16.60;51.40;;;;;;5113220;28;20584;-55
2023/01/27 02:43:36;;;;;;;1.35;1.20;;;16.60;51.40;;;;;;5095084;28;20272;-55
2023/01/27 02:46:02;;;;;;;2.85;1.20;;;16.60;51.40;;;;;;5112792;28;20577;-55
2023/01/27 02:48:27;;;;;;;1.75;1.23;;;16.50;51.40;;;;;;5112904;28;20208;-56
2023/01/27 02:50:53;;;;;;;2.40;1.50;;;16.60;51.40;;;;;;5113269;28;20211;-55
2023/01/27 02:53:18;;;;;;;1.83;1.00;;;16.60;51.40;;;;;;5112407;28;20204;-55
2023/01/27 02:55:44;;;;;;;2.63;1.20;;;16.60;51.40;;;;;;5113079;28;20257;-51
2023/01/27 02:58:09;;;;;;;2.22;1.20;;;16.50;51.40;;;;;;5112678;28;20210;-56
2023/01/27 03:00:35;;;;;;;2.05;1.38;;;16.50;51.40;;;;;;5113025;28;20197;-54
2023/01/27 03:03:00;;;;;;;1.58;1.33;;;16.50;51.30;;;;;;5095213;28;20169;-56
2023/01/27 03:05:26;;;;;;;2.85;1.33;;;16.50;51.30;;;;;;5112149;28;20169;-56
2023/01/27 03:07:52;;;;;;;2.20;1.20;;;16.50;51.40;;;;;;5112930;28;20617;-55
2023/01/27 03:10:17;;;;;;;3.38;1.80;;;16.50;51.30;;;;;;5116616;28;20220;-54
2023/01/27 03:12:43;;;;;;;1.40;1.30;;;16.50;51.30;;;;;;5116383;28;20218;-53
2023/01/27 03:18:12;;;;;;;1.80;1.35;;;16.50;51.40;;;;;;5117028;28;20316;-56
2023/01/27 03:20:39;;;;;;;1.65;1.10;;;16.50;51.40;;;;;;5116128;28;20207;-56
2023/01/27 03:23:04;;;;;;;1.55;1.17;;;16.50;51.40;;;;;;5116949;28;20197;-53
2023/01/27 03:25:30;;;;;;;3.40;1.63;;;16.40;51.30;;;;;;5116874;28;20716;-54
2023/01/27 03:27:56;;;;;;;1.90;1.45;;;16.40;51.40;;;;;;5115996;28;20221;-55
2023/01/27 03:30:21;;;;;;;1.75;1.30;;;16.40;51.40;;;;;;5116680;28;20212;-55
2023/01/27 03:32:47;;;;;;;2.28;1.52;;;16.40;51.40;;;;;;5116900;28;20225;-56
2023/01/27 03:35:16;;;;;;;2.60;1.70;;;16.40;51.40;;;;;;5116258;28;20169;-56
2023/01/27 03:48:38;;;;;;;1.65;1.30;;;16.30;51.40;;;;;;5115439;28;20277;-52
2023/01/27 03:51:05;;;;;;;1.38;1.25;;;16.40;51.40;;;;;;5116562;28;20632;-55
2023/01/27 03:53:31;;;;;;;2.67;1.42;;;16.40;51.40;;;;;;5115966;28;20181;-51
2023/01/27 03:55:57;;;;;;;1.40;1.30;;;16.40;51.40;;;;;;5115624;28;20258;-51
2023/01/27 03:58:24;;;;;;;2.78;1.38;;;16.40;51.40;;;;;;5115955;28;20704;-55
2023/01/27 04:00:54;;;;;;;1.48;1.20;;;16.30;51.30;;;;;;5116144;28;20533;-55
2023/01/27 04:08:54;;;;;;;1.38;1.15;;;16.30;51.40;;;;;;5115287;28;20200;-55
2023/01/27 04:14:04;;;;;;;1.55;1.30;;;16.20;51.30;;;;;;5115980;28;20670;-56
2023/01/27 04:16:30;;;;;;;2.15;1.33;;;16.30;51.40;;;;;;5114769;28;20245;-57
2023/01/27 04:18:56;;;;;;;1.67;1.10;;;16.30;51.40;;;;;;5115959;28;20173;-55
2023/01/27 04:21:22;;;;;;;1.65;1.38;;;16.30;51.40;;;;;;5114542;28;20173;-56
2023/01/27 04:23:47;;;;;;;2.10;1.23;;;16.30;51.40;;;;;;5115617;28;20181;-57
2023/01/27 04:26:13;;;;;;;2.15;1.42;;;16.30;51.30;;;;;;5115819;28;20169;-55
2023/01/27 04:28:38;;;;;;;1.75;1.27;;;16.30;51.30;;;;;;5115466;28;20239;-54
2023/01/27 04:31:04;;;;;;;1.30;1.20;;;16.30;51.40;;;;;;5114984;28;20524;-55
2023/01/27 04:33:29;;;;;;;1.15;1.05;;;16.20;51.30;;;;;;5115332;28;20559;-55
2023/01/27 04:35:55;;;;;;;1.30;1.20;;;16.20;51.30;;;;;;5115524;28;20184;-55
2023/01/27 04:38:21;;;;;;;1.27;1.10;;;16.20;51.40;;;;;;5114679;28;20183;-54
2023/01/27 04:40:46;;;;;;;1.42;1.15;;;16.20;51.40;;;;;;5115640;28;20169;-52
2023/01/27 04:43:12;;;;;;;1.48;1.20;;;16.20;51.30;;;;;;5115449;28;20177;-56
2023/01/27 04:45:37;;;;;;;1.13;1.02;;;16.20;51.30;;;;;;5114184;28;20572;-55
2023/01/27 04:48:05;;;;;;;1.42;1.33;;;16.20;51.40;;;;;;5115240;28;20242;-54
2023/01/27 04:50:31;;;;;;;1.58;1.20;;;16.20;51.30;;;;;;5115027;28;20226;-54
2023/01/27 04:52:56;;;;;;;1.38;1.10;;;16.20;51.40;;;;;;5114684;28;20173;-55
2023/01/27 04:55:22;;;;;;;1.23;1.13;;;16.20;51.40;;;;;;5115001;28;20166;-55
2023/01/27 04:57:47;;;;;;;1.63;1.35;;;16.20;51.30;;;;;;5114610;28;20260;-55
2023/01/27 05:00:14;;;;;;;1.27;1.05;;;16.20;51.40;;;;;;5115102;28;20185;-53
2023/01/27 05:02:39;;;;;;;1.73;1.20;;;16.10;51.40;;;;;;5114753;28;20169;-55
2023/01/27 05:05:05;;;;;;;1.88;1.27;;;16.10;51.30;;;;;;5114162;28;20169;-56
2023/01/27 05:07:31;;;;;;;1.73;1.20;;;16.10;51.30;;;;;;5114392;28;20291;-55
2023/01/27 05:09:56;;;;;;;1.40;1.17;;;16.10;52.00;;;;;;5114793;28;20181;-56
2023/01/27 05:12:22;;;;;;;1.38;1.00;;;16.10;51.30;;;;;;5113876;28;20680;-55
2023/01/27 05:14:47;;;;;;;1.58;1.48;;;16.10;51.40;;;;;;5114810;28;20173;-55
2023/01/27 05:17:13;;;;;;;1.80;1.27;;;16.10;51.40;;;;;;5114459;28;20216;-55
2023/01/27 05:19:38;;;;;;;1.27;1.00;;;16.10;51.40;;;;;;5113732;28;20184;-56
2023/01/27 05:22:04;;;;;;;1.00;0.95;;;16.10;51.40;;;;;;5114877;28;20173;-56
2023/01/27 05:24:29;;;;;;;0.98;0.98;;;16.10;51.30;;;;;;5114146;28;20177;-55
2023/01/27 05:26:56;;;;;;;1.02;1.02;;;16.10;51.40;;;;;;5113769;28;20180;-55
2023/01/27 05:29:22;;;;;;;0.95;0.88;;;16.00;51.30;;;;;;5114119;28;20224;-55
2023/01/27 05:31:47;;;;;;;1.65;1.50;;;16.10;51.30;;;;;;5114538;28;20176;-55
2023/01/27 05:34:13;;;;;;;1.10;1.00;;;16.10;51.40;;;;;;5113659;28;20173;-56
2023/01/27 05:36:39;;;;;;;0.90;0.88;;;16.00;51.30;;;;;;5114234;28;20576;-56
2023/01/27 05:39:04;;;;;;;1.27;1.10;;;16.00;51.30;;;;;;5114480;28;20165;-56
2023/01/27 05:41:30;;;;;;;1.27;1.10;;;16.00;51.30;;;;;;5113449;28;20678;-57
2023/01/27 05:43:58;;;;;;;1.60;1.10;;;16.00;51.30;;;;;;5114245;28;20192;-56
2023/01/27 05:46:26;;;;;;;1.75;1.27;;;16.10;51.40;;;;;;5113813;28;20247;-57
2023/01/27 05:48:54;;;;;;;1.88;1.25;;;16.00;51.30;;;;;;5113077;28;20208;-56
2023/01/27 05:51:21;;;;;;;0.95;0.90;;;16.00;51.30;;;;;;5113776;28;20572;-54
2023/01/27 05:53:46;;;;;;;1.17;0.85;;;16.00;51.40;;;;;;5114197;28;20218;-54
2023/01/27 05:56:13;;;;;;;1.10;0.98;;;16.00;51.30;;;;;;5113160;28;20228;-53
2023/01/27 05:58:39;;;;;;;1.13;0.80;;;16.00;51.40;;;;;;5113642;28;20661;-56
2023/01/27 06:01:16;;;;;;;0.90;0.90;;;16.00;51.40;;;;;;5113122;28;20252;-57
2023/01/27 06:03:42;;;;;;;1.63;1.35;;;16.00;51.40;;;;;;5113702;28;20233;-57
2023/01/27 06:06:08;;;;;;;1.00;0.90;;;16.00;51.40;;;;;;5114035;28;20173;-57
2023/01/27 06:08:34;;;;;;;1.52;1.08;;;16.00;51.40;;;;;;5094790;28;20588;-55
2023/01/27 06:10:59;;;;;;;0.98;0.88;;;16.00;51.40;;;;;;5113661;28;20660;-54
2023/01/27 06:13:25;;;;;;;0.80;0.80;;;15.90;51.30;;;;;;5113366;28;20643;-55
2023/01/27 06:15:50;;;;;;;1.08;0.90;;;16.00;51.40;;;;;;5112804;28;20169;-54
2023/01/27 06:18:17;;;;;;;0.90;0.80;;;15.90;51.30;;;;;;5113597;28;20231;-53
2023/01/27 06:20:43;;;;;;;1.00;0.90;;;15.90;51.30;;;;;;5113703;28;20173;-55
2023/01/27 06:23:08;;;;;;;1.20;0.80;;;15.90;51.30;;;;;;5113051;28;20255;-55
2023/01/27 06:25:39;;;;;;;0.70;0.70;;;15.90;51.30;;;;;;5113389;28;20205;-57
2023/01/27 06:28:05;;;;;;;0.98;0.98;;;15.90;51.40;;;;;;5113398;28;20216;-56
2023/01/27 06:30:31;;;;;;;0.80;0.80;;;15.90;51.40;;;;;;5112494;28;20177;-56
2023/01/27 06:32:56;;;;;;;1.02;0.93;;;15.90;51.40;;;;;;5095266;28;20169;-55
2023/01/27 06:35:22;;;;;;;2.30;1.10;;;15.90;51.40;;;;;;5113243;28;20169;-55
2023/01/27 06:37:48;;;;;;;1.13;0.90;;;15.90;51.40;;;;;;5112834;28;20165;-55
2023/01/27 06:40:14;;;;;;;0.90;0.90;;;15.90;51.40;;;;;;5113468;28;20181;-56
2023/01/27 06:42:42;;;;;;;0.80;0.80;;;15.90;51.40;;;;;;5112922;28;20181;-56
2023/01/27 06:45:08;;;;;;;0.88;0.88;;;15.80;51.30;;;;;;5112149;28;20180;-54
2023/01/27 06:47:33;;;;;;;1.00;0.90;;;15.80;51.30;;;;;;5113147;28;20208;-55
2023/01/27 06:49:59;;;;;;;0.80;0.80;;;15.80;51.30;;;;;;5113337;28;20243;-52
2023/01/27 06:52:24;;;;;;;0.90;0.90;;;15.80;51.30;;;;;;5112273;28;20578;-56
2023/01/27 06:54:50;;;;;;;0.82;0.80;;;15.80;51.40;;;;;;5113063;28;20177;-54
2023/01/27 06:57:15;;;;;;;1.67;0.90;;;15.80;51.40;;;;;;5112907;28;20219;-54
2023/01/27 06:59:41;;;;;;;0.82;0.82;;;15.80;51.40;;;;;;5112879;28;20230;-56
2023/01/27 07:02:10;;;;;;;0.93;0.85;;;15.80;51.40;;;;;;5113502;28;20165;-56
2023/01/27 07:04:36;;;;;;;0.80;0.80;;;15.80;51.30;;;;;;5112124;28;20758;-57
2023/01/27 07:07:02;;;;;;;0.50;0.50;;;15.90;51.40;;;;;;5113144;28;20265;-56
2023/01/27 07:09:27;;;;;;;1.15;0.90;;;16.00;51.50;;;;;;5112804;28;20269;-56
2023/01/27 07:11:53;;;;;;;1.35;1.00;;;16.10;51.50;;;;;;5112335;28;20262;-52
2023/01/27 07:14:18;;;;;;;0.65;0.65;;;16.20;51.30;;;;;;5112620;28;20201;-51
2023/01/27 07:16:44;;;;;;;0.82;0.82;;;16.40;51.10;;;;;;5112792;28;20205;-53
2023/01/27 07:19:11;;;;;;;1.02;0.90;;;16.50;50.80;;;;;;5112430;28;20181;-56
2023/01/27 07:21:37;;;;;;;0.75;0.75;;;16.70;50.70;;;;;;5112873;28;20180;-55
2023/01/27 07:24:03;;;;;;;0.60;0.60;;;16.80;50.50;;;;;;5113033;28;20545;-53
2023/01/27 07:26:28;;;;;;;0.65;0.65;;;16.90;50.30;;;;;;5111958;28;20603;-52
2023/01/27 07:28:54;;;;;;;1.30;0.70;;;17.00;50.10;;;;;;5112994;28;20205;-51
2023/01/27 07:31:20;;;;;;;1.00;0.50;;;17.10;50.00;;;;;;5112747;28;20169;-54
2023/01/27 07:33:45;;;;;;;1.05;0.60;;;17.20;49.90;;;;;;5112386;28;20578;-56
2023/01/27 07:36:11;;;;;;;1.15;0.60;;;17.20;49.80;;;;;;5113118;28;20252;-53
2023/01/27 07:38:37;;;;;;;0.80;0.80;;;17.30;50.40;;;;;;5112708;28;20598;-53
2023/01/27 07:41:04;;;;;;;0.82;0.65;;;17.30;49.70;;;;;;5111894;28;20694;-53
2023/01/27 07:43:31;;;;;;;0.50;0.50;;;17.30;49.70;;;;;;5112388;28;20181;-56
2023/01/27 07:45:56;;;;;;;0.60;0.50;;;17.40;49.60;;;;;;5112919;28;20170;-55
2023/01/27 07:48:22;;;;;;;0.55;0.55;;;17.50;49.30;;;;;;5111680;28;20299;-56
2023/01/27 07:50:47;;;;;;;1.08;0.60;;;17.50;49.60;;;;;;5112798;28;20169;-56
2023/01/27 07:53:13;;;;;;;0.50;0.50;;;17.60;49.20;;;;;;5112707;28;20208;-56
2023/01/27 07:55:38;;;;;;;0.50;0.50;;;17.60;49.10;;;;;;5112450;28;20220;-55
2023/01/27 07:58:04;;;;;;;0.52;0.52;;;17.60;49.20;;;;;;5116238;28;20184;-55
2023/01/27 08:00:30;;;;;;;0.55;0.55;;;17.70;49.20;;;;;;5116219;28;20623;-54
2023/01/27 08:02:56;;;;;;;0.65;0.65;;;17.60;49.20;;;;;;5115562;28;20192;-52
2023/01/27 08:05:22;;;;;;;0.55;0.52;;;17.50;49.20;;;;;;5115896;28;20313;-56
2023/01/27 08:07:48;;;;;;;0.80;0.60;;;17.40;49.30;;;;;;5115333;28;20236;-56
2023/01/27 08:10:13;;;;;;;0.52;0.40;;;17.40;49.40;;;;;;5116223;28;20654;-52
2023/01/27 08:12:39;;;;;;;0.70;0.70;;;17.40;49.50;;;;;;5115774;28;20180;-54
2023/01/27 08:15:05;;;;;;;0.57;0.50;;;17.30;49.60;;;;;;5115290;28;20177;-56
2023/01/27 08:17:30;;;;;;;0.50;0.50;;;17.30;49.70;;;;;;5115511;28;20220;-56
2023/01/27 08:19:56;;;;;;;0.52;0.52;;;17.30;49.80;;;;;;5115922;28;20175;-55
2023/01/27 08:22:21;;;;;;;0.85;0.63;;;17.30;49.80;;;;;;5114812;28;20169;-64
2023/01/27 08:24:48;;;;;;;0.63;0.60;;;17.20;49.80;;;;;;5117406;28;20196;-74
2023/01/27 08:27:13;;;;;;;0.98;0.60;;;17.20;50.00;;;;;;5115771;28;20177;-77
2023/01/27 08:29:39;;;;;;;0.70;0.70;;;17.20;50.30;;;;;;5114717;28;20209;-78
2023/01/27 08:32:04;;;;;;;0.70;0.50;;;17.10;50.60;;;;;;5115749;28;20534;-76
2023/01/27 08:34:30;;;;;;;1.02;0.73;;;17.00;50.80;;;;;;5115227;28;20651;-78
2023/01/27 08:36:56;;;;;;;2.97;0.88;;;17.00;51.10;;;;;;5115037;28;20584;-67
2023/01/27 08:39:21;;;;;;;1.63;1.00;;;16.90;51.30;;;;;;5115249;28;20637;-63
2023/01/27 08:41:47;;;;;;;3.65;0.98;;;17.00;51.50;;;;;;5115382;28;20173;-62
2023/01/27 08:44:12;;;;;;;3.53;0.65;;;17.00;51.40;;;;;;5114915;28;20172;-61
2023/01/27 08:46:38;;;;;;;1.27;0.77;;;17.00;51.40;;;;;;5114841;28;20173;-62
2023/01/27 08:49:03;;;;;;;1.27;0.70;;;17.00;51.40;;;;;;5115015;28;20215;-62
2023/01/27 08:51:29;;;;;;;3.05;0.73;;;17.10;51.40;;;;;;5113824;28;20184;-61
2023/01/27 08:53:55;;;;;;;1.73;0.60;;;17.00;51.30;;;;;;5114349;28;20248;-61
2023/01/27 08:56:20;;;;;;;2.05;0.68;;;17.00;51.30;;;;;;5114233;28;20608;-61
2023/01/27 08:58:47;;;;;;;0.93;0.80;;;17.00;51.40;;;;;;5113301;28;20181;-61
2023/01/27 09:01:13;;;;;;;1.38;0.68;;;17.00;51.40;;;;;;5114135;28;20173;-61
2023/01/27 09:03:38;;;;;;;1.05;0.60;;;17.00;51.50;;;;;;5114639;28;20226;-65
2023/01/27 09:06:04;;;;;;;0.38;0.38;;;17.00;51.50;;;;;;5113858;28;20161;-63
2023/01/27 09:08:30;;;;;;;1.52;0.50;;;16.90;51.50;;;;;;5114469;28;20683;-63
2023/01/27 09:10:55;;;;;;;0.77;0.70;;;16.90;51.60;;;;;;5113590;28;20173;-63
2023/01/27 09:13:21;;;;;;;1.13;0.75;;;17.00;51.60;;;;;;5113738;28;20177;-62
2023/01/27 09:15:46;;;;;;;1.52;0.80;;;17.00;51.60;;;;;;5114891;28;20180;-62
2023/01/27 09:18:12;;;;;;;1.67;0.80;;;17.00;51.60;;;;;;5113713;28;20229;-61
2023/01/27 09:20:38;;;;;;;0.70;0.60;;;17.00;51.50;;;;;;5114339;28;20173;-61
2023/01/27 09:23:04;;;;;;;0.80;0.60;;;17.00;51.50;;;;;;5114669;28;20169;-62
2023/01/27 09:25:29;;;;;;;1.10;0.80;;;17.00;51.50;;;;;;5113418;28;20541;-62
2023/01/27 09:27:55;;;;;;;0.80;0.70;;;17.00;51.50;;;;;;5114659;28;20263;-61
2023/01/27 09:30:21;;;;;;;0.65;0.65;;;16.90;51.50;;;;;;5114460;28;20173;-62
2023/01/27 09:32:46;;;;;;;0.50;0.50;;;16.90;51.60;;;;;;5113814;28;20256;-62
2023/01/27 09:35:12;;;;;;;1.73;0.80;;;16.90;51.60;;;;;;5114454;28;20180;-62
2023/01/27 09:37:48;;;;;;;0.70;0.70;;;16.90;51.70;;;;;;5114057;28;20197;-63
2023/01/27 09:40:37;;;;;;;2.15;0.60;;;17.00;51.70;;;;;;5113546;28;20184;-61
2023/01/27 09:43:17;;;;;;;1.17;0.75;;;17.00;51.60;;;;;;5082100;28;20184;-61
2023/01/27 09:46:00;;;;;;;1.38;0.60;;;17.00;51.60;;;;;;5114142;28;20586;-61
2023/01/27 09:48:41;;;;;;;0.73;0.60;;;17.00;51.60;;;;;;5094976;28;20205;-61
2023/01/27 09:51:21;;;;;;;0.82;0.70;;;17.00;51.60;;;;;;5114320;28;20244;-61
2023/01/27 09:54:02;;;;;;;0.70;0.70;;;16.90;51.50;;;;;;5096315;28;20264;-62
2023/01/27 09:56:33;;;;;;;0.68;0.57;;;16.90;51.50;;;;;;5094868;28;20180;-62
2023/01/27 09:59:04;;;;;;;0.90;0.60;;;16.90;51.60;;;;;;5094432;28;20170;-63
2023/01/27 10:01:41;;;;;;;0.40;0.40;;;16.90;51.70;;;;;;5112448;28;20254;-63
2023/01/27 10:04:28;;;;;;;0.70;0.57;;;16.90;51.80;;;;;;5113162;28;20655;-63
2023/01/27 10:07:01;;;;;;;1.98;0.90;;;16.90;51.80;;;;;;5096954;28;20677;-64
2023/01/27 10:09:47;;;;;;;1.05;0.68;;;16.90;51.60;;;;;;5094793;28;20710;-63
2023/01/27 10:12:44;;;;;;;0.50;0.50;;;16.90;51.50;;;;;;5078987;28;20169;-64
2023/01/27 10:15:32;;;;;;;1.63;0.80;;;16.90;51.40;;;;;;5080414;28;20195;-64
2023/01/27 10:18:19;;;;;;;0.63;0.63;;;16.80;51.20;;;;;;5112918;28;20225;-64
2023/01/27 10:20:51;;;;;;;0.50;0.50;;;16.80;51.20;;;;;;5113751;28;20169;-62
2023/01/27 10:23:47;;;;;;;0.50;0.50;;;16.80;51.20;;;;;;5095234;28;20216;-62
2023/01/27 10:26:30;;;;;;;0.80;0.80;;;16.80;51.20;;;;;;5113751;28;20249;-62
2023/01/27 10:29:10;;;;;;;0.82;0.70;;;16.80;51.30;;;;;;5096531;28;20204;-62
2023/01/27 10:31:38;;;;;;;0.75;0.57;;;16.90;51.40;;;;;;5095231;28;20173;-62
2023/01/27 10:34:12;;;;;;;0.52;0.45;;;17.00;51.50;;;;;;5095612;28;20177;-63
2023/01/27 10:36:45;;;;;;;0.70;0.70;;;17.10;51.50;;;;;;5095366;28;20177;-62
2023/01/27 10:39:49;;;;;;;0.40;0.40;;;17.20;51.20;;;;;;5095393;28;20266;-61
2023/01/27 10:42:35;;;;;;;1.27;0.50;;;17.50;51.10;;;;;;5113413;28;20179;-61
2023/01/27 10:45:24;;;;;;;0.40;0.40;;;17.70;50.60;;;;;;5095447;28;20175;-62
2023/01/27 10:48:01;;;;;;;0.75;0.40;;;18.00;50.30;;;;;;5096117;28;20206;-62
2023/01/27 10:50:38;;;;;;;0.40;0.40;;;18.20;50.00;;;;;;5078433;28;20181;-63
2023/01/27 10:53:27;;;;;;;0.50;0.50;;;18.30;49.80;;;;;;5079854;28;20164;-63
2023/01/27 10:56:03;;;;;;;1.23;0.70;;;18.50;49.60;;;;;;5080203;28;20181;-63
2023/01/27 10:58:41;;;;;;;0.50;0.50;;;18.50;49.50;;;;;;5094616;28;20539;-64
2023/01/27 11:01:07;;;;;;;0.45;0.45;;;18.60;49.30;;;;;;5095899;28;20172;-63
2023/01/27 11:03:41;;;;;;;0.60;0.60;;;18.70;49.30;;;;;;5111915;28;20173;-62
2023/01/27 11:06:09;;;;;;;0.60;0.60;;;18.70;49.20;;;;;;5113410;28;20177;-63
2023/01/27 11:08:37;;;;;;;1.30;0.50;;;18.70;49.20;;;;;;5095077;28;20266;-62
2023/01/27 11:14:01;;;;;;;0.55;0.40;;;18.70;49.30;;;;;;5098061;28;20204;-62
2023/01/27 11:16:28;;;;;;;0.50;0.50;;;18.70;49.40;;;;;;5094988;28;20595;-62
2023/01/27 11:18:56;;;;;;;0.68;0.52;;;18.70;49.50;;;;;;5077531;28;20612;-62
2023/01/27 11:21:21;;;;;;;0.38;0.38;;;18.60;49.50;;;;;;5078108;28;20177;-62
2023/01/27 11:23:50;;;;;;;0.50;0.50;;;18.60;49.60;;;;;;5094763;28;20177;-62
2023/01/27 11:26:37;;;;;;;0.75;0.40;;;18.60;49.60;;;;;;5094133;28;20169;-61
2023/01/27 11:29:17;;;;;;;0.52;0.50;;;18.60;49.60;;;;;;5094696;28;20290;-61
2023/01/27 11:32:07;;;;;;;0.30;0.30;;;18.60;49.70;;;;;;5116352;28;20196;-64
2023/01/27 11:34:35;;;;;;;0.40;0.40;;;18.60;49.70;;;;;;5116245;28;20168;-64
2023/01/27 11:37:08;;;;;;;1.00;0.50;;;18.60;49.70;;;;;;5098504;28;20627;-63
2023/01/27 11:39:34;;;;;;;1.25;0.57;;;18.50;49.70;;;;;;5081343;28;20230;-62
2023/01/27 11:41:59;;;;;;;1.38;0.63;;;18.50;49.80;;;;;;5116792;28;20584;-63
2023/01/27 11:44:31;;;;;;;0.63;0.45;;;18.50;49.80;;;;;;5116413;28;20685;-62
2023/01/27 11:46:56;;;;;;;1.75;0.50;;;18.50;49.90;;;;;;5115758;28;20173;-62
2023/01/27 11:49:29;;;;;;;0.50;0.45;;;18.50;49.90;;;;;;5097894;28;20219;-62
2023/01/27 11:52:04;;;;;;;0.80;0.55;;;18.50;50.00;;;;;;5116674;28;20263;-62
2023/01/27 11:54:33;;;;;;;0.88;0.55;;;18.50;50.10;;;;;;5098139;28;20590;-62
2023/01/27 11:56:58;;;;;;;0.57;0.40;;;18.50;50.20;;;;;;5081875;28;20211;-62
2023/01/27 11:59:33;;;;;;;1.02;0.30;;;18.50;50.20;;;;;;5115687;28;20512;-64
2023/01/27 12:02:13;;;;;;;1.52;0.90;;;18.50;50.10;;;;;;5080797;28;20180;-64
2023/01/27 12:04:57;;;;;;;2.17;0.93;;;18.50;50.30;;;;;;5097781;28;20234;-63
2023/01/27 12:07:42;;;;;;;3.65;0.77;;;18.50;50.40;;;;;;5096797;28;20195;-64
2023/01/27 12:10:28;;;;;;;3.85;0.63;;;18.50;50.40;;;;;;5097744;28;20224;-64
2023/01/27 12:12:54;;;;;;;1.35;0.73;;;18.50;50.30;;;;;;5115801;28;20207;-65
2023/01/27 12:15:19;;;;;;;2.83;0.52;;;18.50;50.30;;;;;;5114867;28;20224;-65
2023/01/27 12:17:48;;;;;;;1.63;0.80;;;18.60;50.20;;;;;;5115686;28;20256;-66
2023/01/27 12:20:31;;;;;;;3.28;0.70;;;18.70;50.10;;;;;;5097750;28;20705;-65
2023/01/27 12:23:16;;;;;;;2.67;0.90;;;18.70;50.10;;;;;;5115146;28;20187;-64
2023/01/27 12:25:44;;;;;;;1.85;0.77;;;18.70;50.10;;;;;;5081289;28;20177;-64
2023/01/27 12:28:24;;;;;;;3.15;0.77;;;18.60;50.10;;;;;;5096678;28;20216;-63
2023/01/27 12:30:50;;;;;;;3.45;1.00;;;18.70;50.20;;;;;;5098510;28;20275;-64
2023/01/27 12:33:24;;;;;;;1.58;0.80;;;18.60;50.30;;;;;;5097753;28;20242;-64
2023/01/27 12:35:50;;;;;;;2.35;1.05;;;18.60;50.20;;;;;;5096891;28;20177;-63
2023/01/27 12:38:25;;;;;;;1.63;0.90;;;18.60;50.30;;;;;;5097389;28;20176;-62
2023/01/27 12:41:02;;;;;;;1.33;0.63;;;18.60;50.40;;;;;;5096697;28;20188;-62
2023/01/27 12:43:28;;;;;;;0.90;0.60;;;18.60;50.40;;;;;;5114408;28;20585;-62
2023/01/27 12:46:04;;;;;;;2.85;1.10;;;18.60;50.50;;;;;;5097110;28;20169;-62
2023/01/27 12:48:32;;;;;;;2.08;0.73;;;18.60;50.40;;;;;;5115051;28;20216;-62
2023/01/27 12:51:13;;;;;;;1.85;0.80;;;18.50;50.50;;;;;;5114845;28;20181;-62
2023/01/27 12:53:42;;;;;;;3.28;1.25;;;18.50;50.50;;;;;;5097099;28;20696;-62
2023/01/27 12:56:11;;;;;;;1.42;0.60;;;18.50;50.60;;;;;;5114650;28;20181;-62
2023/01/27 12:59:02;;;;;;;1.60;0.70;;;18.50;50.70;;;;;;5114896;28;20226;-64
2023/01/27 13:01:29;;;;;;;1.40;0.65;;;18.40;50.70;;;;;;5114862;28;20181;-64
2023/01/27 13:04:16;;;;;;;1.45;0.60;;;18.40;50.70;;;;;;5114443;28;20205;-63
2023/01/27 13:06:43;;;;;;;0.82;0.68;;;18.40;50.70;;;;;;5114812;28;20255;-63
2023/01/27 13:09:33;;;;;;;2.65;1.15;;;18.40;50.80;;;;;;5096627;28;20220;-62
2023/01/27 13:12:15;;;;;;;0.98;0.70;;;18.40;50.70;;;;;;5114118;28;20252;-62
2023/01/27 13:14:41;;;;;;;3.08;0.77;;;18.50;50.80;;;;;;5114486;28;20528;-62
2023/01/27 13:17:24;;;;;;;1.58;0.68;;;18.50;50.80;;;;;;5113804;28;20713;-62
2023/01/27 13:19:53;;;;;;;1.00;0.50;;;18.40;50.80;;;;;;5096870;28;20234;-62
2023/01/27 13:22:18;;;;;;;1.30;0.60;;;18.40;50.80;;;;;;5080352;28;20165;-62
2023/01/27 13:24:44;;;;;;;0.55;0.50;;;18.40;50.90;;;;;;5095825;28;20211;-62
2023/01/27 13:27:15;;;;;;;1.08;0.60;;;18.50;50.80;;;;;;5096304;28;20169;-64
2023/01/27 13:29:41;;;;;;;1.27;0.75;;;18.40;50.70;;;;;;5116922;28;20227;-65
2023/01/27 13:32:22;;;;;;;1.95;0.77;;;18.40;50.70;;;;;;5081159;28;20181;-63